El Astillero, Spain
Current Conditions -  °F | °C
As of 5:00 PM on Thursday 27 Nov 2014 (Local Time) from LEXJ Reporting Station
Few Clouds Few Clouds  
Wind Chill: 64°   Ceiling: Unl
Heat Index: 64°   Visibility: 6mi
Dew Point: 43°   Wind: 15mph
Humidity: 45%   Direction: 160°SSE
Pressure: 29.26"   Gusts: NA
Location:  43.4°N, 3.82°W
Report Text: LEXJ 271600Z 16013KT 110V200 9999 FEW070 18/06 Q0991
Loading
Personal Weather Stations






























Interactive Weather Map New forecast layout! Learn more

10-Day Weather Forecast

Advertisements
Track Severe Weather on mobile